Home   Weather   Switzerland   Delémont   Past weeks
Flag for Switzerland

Past Weather in Delémont, Jura, Switzerland — Yesterday and Last 2 Weeks

Currently: 66 °F. Clear. (Weather station: Grenchen, Switzerland). See more current weather

Past Weather in Delémont — Graph

°F

Delémont Temperature Yesterday

Maximum temperature yesterday: 88 °F (at 2:50 pm)
Minimum temperature yesterday: 59 °F (at 6:20 am)
Average temperature yesterday: 73 °F

High & Low Weather Summary for the Past Weeks

 TemperatureHumidityPressure
High88 °F (Jun 16, 4:20 pm)100% (Jun 4, 11:50 pm)30.27 "Hg (Jun 4, 11:50 pm)
Low52 °F (Jun 14, 5:50 am)25% (Jun 16, 4:20 pm)29.92 "Hg (Jun 16, 6:20 pm)
Average67 °F74%30.14 "Hg
* Reported Jun 3 4:20 am — Jun 18 4:50 am, Delémont. Weather by CustomWeather, © 2021

Note: Actual official high and low records may vary slightly from our data, if they occured in-between our weather recording intervals... More about our weather records

Delémont Weather History for the Previous 24 Hours

Scroll right to see more
 ConditionsComfort  
Time TempWeatherWind HumidityBarometerVisibility
4:50 am
Fri, Jun 18
68 °FClear.2 mph83%29.98 "Hg10 mi
4:20 am66 °FClear.1 mph88%29.98 "Hg10 mi
3:50 am66 °FClear.2 mph88%29.98 "Hg10 mi
3:20 am68 °FClear.5 mph83%30.01 "HgN/A
2:50 am70 °FPassing clouds.6 mph73%30.01 "HgN/A
2:20 am70 °FClear.8 mph73%30.01 "HgN/A
1:50 am72 °FThundershowers. Passing clouds.9 mph69%30.01 "HgN/A
1:20 am72 °FThundershowers. Partly cloudy.17 mph73%30.01 "HgN/A
12:50 am73 °FPartly cloudy.15 mph69%30.01 "HgN/A
12:20 am79 °FPassing clouds.15 mph54%29.98 "HgN/A
11:50 pm
Thu, Jun 17
79 °FPassing clouds.7 mph54%29.95 "HgN/A
11:20 pm81 °FWarm.6 mph51%29.95 "HgN/A
10:50 pm73 °FMild.5 mph69%29.95 "HgN/A
10:20 pm72 °FMild.2 mph73%29.92 "HgN/A
9:50 pm72 °FClear.2 mph69%29.92 "HgN/A
9:20 pm75 °FMild.3 mph61%29.92 "HgN/A
8:50 pm77 °FSunny.3 mph61%29.92 "Hg10 mi
8:20 pm81 °FSunny.6 mph51%29.92 "Hg10 mi
7:50 pm82 °FSunny.6 mph55%29.92 "Hg10 mi
7:20 pm82 °FSunny.7 mph55%29.92 "Hg10 mi
6:50 pm84 °FSunny.6 mph48%29.92 "Hg10 mi
6:20 pm86 °FSunny.5 mph43%29.92 "Hg10 mi
5:50 pm86 °FSunny.5 mph49%29.92 "Hg10 mi
5:20 pm86 °FSunny.3 mph43%29.92 "Hg10 mi
4:50 pm86 °FSunny.5 mph46%29.95 "Hg10 mi
4:20 pm84 °FSunny.7 mph48%29.95 "Hg10 mi
3:50 pm86 °FSunny.3 mph46%29.95 "Hg10 mi
3:20 pm88 °FPassing clouds.2 mph40%29.95 "HgN/A
2:50 pm88 °FPassing clouds.2 mph43%29.95 "HgN/A
2:20 pm86 °FPassing clouds.2 mph43%29.98 "HgN/A
1:50 pm84 °FPassing clouds.5 mph45%29.98 "HgN/A
1:20 pm84 °FSunny.3 mph48%29.98 "Hg10 mi
12:50 pm81 °FSunny.2 mph51%30.01 "Hg10 mi
12:20 pm82 °FSunny.2 mph51%30.01 "Hg10 mi
11:50 am77 °FPassing clouds.2 mph57%30.01 "HgN/A
11:20 am77 °FPassing clouds.2 mph65%30.01 "HgN/A
10:50 am75 °FSunny.1 mph65%30.01 "Hg10 mi
10:20 am72 °FSunny.2 mph73%30.01 "Hg10 mi
9:50 am70 °FPassing clouds.3 mph73%30.01 "HgN/A
9:20 am68 °FSunny.2 mph73%30.01 "Hg10 mi
8:50 am68 °FSunny.1 mph73%30.01 "Hg10 mi
8:20 am64 °FPassing clouds.2 mph88%30.01 "HgN/A
7:50 am64 °FSunny.2 mph88%30.01 "Hg10 mi
7:20 am63 °FClear.1 mph88%30.01 "HgN/A
6:50 am64 °FSunny.2 mph83%30.01 "Hg10 mi
6:20 am59 °FClear.2 mph94%29.98 "Hg10 mi
5:50 am61 °FCool.1 mph88%29.98 "HgN/A
5:20 am61 °FClear.1 mph88%29.98 "HgN/A
Weather by CustomWeather, © 2021

See weather overview